createdAt,value
2019-03-25T00:00:48.623Z,1013.70
2019-03-25T00:01:48.612Z,1013.64
2019-03-25T00:02:48.602Z,1013.66
2019-03-25T00:03:48.593Z,1013.61
2019-03-25T00:04:48.579Z,1013.60
2019-03-25T00:05:48.568Z,1013.60
2019-03-25T00:06:48.560Z,1013.62
2019-03-25T00:07:48.549Z,1013.61
2019-03-25T00:08:48.536Z,1013.62
2019-03-25T00:09:48.525Z,1013.55
2019-03-25T00:10:48.517Z,1013.51
2019-03-25T00:11:48.503Z,1013.50
2019-03-25T00:12:48.498Z,1013.46
2019-03-25T00:13:48.485Z,1013.47
2019-03-25T00:14:48.536Z,1013.41
2019-03-25T00:15:48.466Z,1013.44
2019-03-25T00:16:48.454Z,1013.44
2019-03-25T00:17:48.439Z,1013.44
2019-03-25T00:18:48.436Z,1013.44
2019-03-25T00:19:48.419Z,1013.43
2019-03-25T00:20:48.414Z,1013.36
2019-03-25T00:21:48.398Z,1013.38
2019-03-25T00:22:48.388Z,1013.35
2019-03-25T00:23:48.375Z,1013.34
2019-03-25T00:24:48.366Z,1013.34
2019-03-25T00:25:48.358Z,1013.35
2019-03-25T00:26:48.348Z,1013.30
2019-03-25T00:27:48.333Z,1013.27
2019-03-25T00:28:48.327Z,1013.28
2019-03-25T00:29:48.314Z,1013.25
2019-03-25T00:30:48.300Z,1013.23
2019-03-25T00:31:48.290Z,1013.24
2019-03-25T00:32:48.280Z,1013.22
2019-03-25T00:33:48.272Z,1013.24
2019-03-25T00:34:48.259Z,1013.19
2019-03-25T00:35:48.254Z,1013.18
2019-03-25T00:36:48.237Z,1013.14
2019-03-25T00:37:48.227Z,1013.08
2019-03-25T00:38:48.235Z,1013.11
2019-03-25T00:39:48.204Z,1013.09
2019-03-25T00:40:48.194Z,1013.15
2019-03-25T00:41:48.185Z,1013.11
2019-03-25T00:42:48.177Z,1013.11
2019-03-25T00:43:48.163Z,1013.11
2019-03-25T00:44:48.151Z,1013.10
2019-03-25T00:45:48.144Z,1013.05
2019-03-25T00:46:48.130Z,1013.03
2019-03-25T00:47:48.120Z,1013.04
2019-03-25T00:48:48.112Z,1013.01
2019-03-25T00:49:48.100Z,1013.04
2019-03-25T00:50:48.091Z,1013.03
2019-03-25T00:51:48.076Z,1012.97
2019-03-25T00:52:48.065Z,1012.98
2019-03-25T00:53:48.059Z,1012.99
2019-03-25T00:54:50.129Z,1012.95
2019-03-25T00:55:48.035Z,1012.89
2019-03-25T00:56:48.026Z,1012.88
2019-03-25T00:57:48.016Z,1012.83
2019-03-25T00:58:48.002Z,1012.80
2019-03-25T00:59:49.069Z,1012.79
2019-03-25T01:00:47.984Z,1012.74
2019-03-25T01:01:47.970Z,1012.75
2019-03-25T01:02:47.965Z,1012.73
2019-03-25T01:03:47.952Z,1012.70
2019-03-25T01:04:47.939Z,1012.70
2019-03-25T01:05:47.930Z,1012.66
2019-03-25T01:06:47.920Z,1012.66
2019-03-25T01:07:47.909Z,1012.66
2019-03-25T01:08:47.904Z,1012.58
2019-03-25T01:09:47.889Z,1012.50
2019-03-25T01:10:47.872Z,1012.54
2019-03-25T01:11:49.324Z,1012.52
2019-03-25T01:12:47.860Z,1012.47
2019-03-25T01:13:47.851Z,1012.45
2019-03-25T01:14:47.836Z,1012.41
2019-03-25T01:15:47.823Z,1012.46
2019-03-25T01:16:47.813Z,1012.41
2019-03-25T01:17:47.801Z,1012.44
2019-03-25T01:18:47.795Z,1012.41
2019-03-25T01:19:47.777Z,1012.37
2019-03-25T01:20:47.769Z,1012.30
2019-03-25T01:21:47.761Z,1012.27
2019-03-25T01:22:47.747Z,1012.29
2019-03-25T01:23:47.739Z,1012.17
2019-03-25T01:24:47.726Z,1012.19
2019-03-25T01:25:47.715Z,1012.15
2019-03-25T01:26:47.707Z,1012.13
2019-03-25T01:27:47.693Z,1012.09
2019-03-25T01:28:47.691Z,1012.08
2019-03-25T01:29:47.669Z,1012.04
2019-03-25T01:30:47.664Z,1012.06
2019-03-25T01:31:47.650Z,1012.06
2019-03-25T01:32:47.638Z,1012.02
2019-03-25T01:33:47.627Z,1012.04
2019-03-25T01:34:47.619Z,1012.08
2019-03-25T01:35:47.609Z,1012.05
2019-03-25T01:36:47.597Z,1012.10
2019-03-25T01:37:47.584Z,1012.10
2019-03-25T01:38:47.577Z,1012.04
2019-03-25T01:39:47.568Z,1012.04
2019-03-25T01:40:47.552Z,1012.01
2019-03-25T01:41:47.545Z,1011.91
2019-03-25T01:42:47.530Z,1011.95
2019-03-25T01:43:47.523Z,1011.94
2019-03-25T01:44:47.511Z,1011.85
2019-03-25T01:45:47.498Z,1011.88
2019-03-25T01:46:47.487Z,1011.84
2019-03-25T01:47:47.479Z,1011.84
2019-03-25T01:48:47.473Z,1011.82
2019-03-25T01:49:47.465Z,1011.80
2019-03-25T01:50:47.448Z,1011.81
2019-03-25T01:51:47.434Z,1011.83
2019-03-25T01:52:47.427Z,1011.82
2019-03-25T01:53:47.414Z,1011.74
2019-03-25T01:54:47.404Z,1011.78
2019-03-25T01:55:47.395Z,1011.65
2019-03-25T01:56:47.383Z,1011.67
2019-03-25T01:57:47.370Z,1011.67
2019-03-25T01:58:47.364Z,1011.66
2019-03-25T01:59:47.352Z,1011.63
2019-03-25T02:00:47.340Z,1011.59
2019-03-25T02:01:47.326Z,1011.54
2019-03-25T02:02:47.315Z,1011.55
2019-03-25T02:03:47.308Z,1011.52
2019-03-25T02:04:47.297Z,1011.52
2019-03-25T02:05:47.286Z,1011.49
2019-03-25T02:06:47.274Z,1011.52
2019-03-25T02:07:47.265Z,1011.49
2019-03-25T02:08:47.253Z,1011.44
2019-03-25T02:09:47.245Z,1011.42
2019-03-25T02:10:47.233Z,1011.31
2019-03-25T02:11:47.222Z,1011.40
2019-03-25T02:12:47.210Z,1011.38
2019-03-25T02:13:47.202Z,1011.37
2019-03-25T02:14:47.190Z,1011.36
2019-03-25T02:15:47.180Z,1011.37
2019-03-25T02:16:47.169Z,1011.36
2019-03-25T02:17:47.157Z,1011.34
2019-03-25T02:18:47.152Z,1011.34
2019-03-25T02:19:47.137Z,1011.33
2019-03-25T02:20:47.129Z,1011.20
2019-03-25T02:21:47.114Z,1011.27
2019-03-25T02:22:47.341Z,1011.24
2019-03-25T02:23:47.097Z,1011.16
2019-03-25T02:24:47.084Z,1011.20
2019-03-25T02:25:47.074Z,1011.17
2019-03-25T02:26:47.060Z,1011.16
2019-03-25T02:27:47.052Z,1011.19
2019-03-25T02:28:47.044Z,1011.15
2019-03-25T02:29:47.027Z,1011.16
2019-03-25T02:30:47.024Z,1011.14
2019-03-25T02:31:47.012Z,1011.06
2019-03-25T02:32:46.996Z,1011.06
2019-03-25T02:33:46.986Z,1011.08
2019-03-25T02:35:01.605Z,1011.05
2019-03-25T02:35:46.975Z,1011.06
2019-03-25T02:36:46.953Z,1011.03
2019-03-25T02:37:46.943Z,1011.05
2019-03-25T02:38:46.934Z,1011.04
2019-03-25T02:39:46.921Z,1011.03
2019-03-25T02:40:46.915Z,1011.02
2019-03-25T02:41:46.901Z,1011.02
2019-03-25T02:42:46.890Z,1010.92
2019-03-25T02:43:46.885Z,1010.96
2019-03-25T02:44:46.867Z,1010.90
2019-03-25T02:45:46.857Z,1010.89
2019-03-25T02:46:46.848Z,1010.88
2019-03-25T02:47:46.836Z,1010.83
2019-03-25T02:48:46.827Z,1010.84
2019-03-25T02:49:46.821Z,1010.86
2019-03-25T02:50:46.806Z,1010.82
2019-03-25T02:51:46.794Z,1010.77
2019-03-25T02:52:46.784Z,1010.80
2019-03-25T02:53:46.773Z,1010.76
2019-03-25T02:54:46.760Z,1010.76
2019-03-25T02:55:46.751Z,1010.75
2019-03-25T02:56:46.743Z,1010.74
2019-03-25T02:57:46.729Z,1010.69
2019-03-25T02:58:46.721Z,1010.67
2019-03-25T02:59:46.707Z,1010.64
2019-03-25T03:00:46.701Z,1010.71
2019-03-25T03:01:46.687Z,1010.59
2019-03-25T03:02:46.678Z,1010.55
2019-03-25T03:03:46.664Z,1010.59
2019-03-25T03:04:46.655Z,1010.54
2019-03-25T03:05:46.645Z,1010.48
2019-03-25T03:06:46.633Z,1010.50
2019-03-25T03:07:46.623Z,1010.49
2019-03-25T03:08:47.658Z,1010.54
2019-03-25T03:09:46.604Z,1010.47
2019-03-25T03:10:46.592Z,1010.43
2019-03-25T03:11:46.583Z,1010.45
2019-03-25T03:12:46.570Z,1010.41
2019-03-25T03:13:46.567Z,1010.39
2019-03-25T03:14:46.550Z,1010.38
2019-03-25T03:15:46.537Z,1010.38
2019-03-25T03:16:46.526Z,1010.34
2019-03-25T03:17:46.519Z,1010.37
2019-03-25T03:18:46.507Z,1010.36
2019-03-25T03:19:46.493Z,1010.33
2019-03-25T03:20:46.486Z,1010.31
2019-03-25T03:21:46.474Z,1010.29
2019-03-25T03:22:46.472Z,1010.23
2019-03-25T03:23:46.473Z,1010.26
2019-03-25T03:24:46.441Z,1010.24
2019-03-25T03:25:57.336Z,1010.22
2019-03-25T03:26:47.421Z,1010.21
2019-03-25T03:27:46.413Z,1010.17
2019-03-25T03:28:46.405Z,1010.17
2019-03-25T03:29:46.387Z,1010.17
2019-03-25T03:30:46.377Z,1010.16
2019-03-25T03:31:46.410Z,1010.19
2019-03-25T03:32:46.507Z,1010.12
2019-03-25T03:33:46.346Z,1010.13
2019-03-25T03:34:46.348Z,1010.10
2019-03-25T03:35:46.780Z,1010.03
2019-03-25T03:36:46.313Z,1010.00
2019-03-25T03:37:46.305Z,1010.02
2019-03-25T03:38:46.301Z,1010.03
2019-03-25T03:39:46.280Z,1009.97
2019-03-25T03:40:46.334Z,1009.94
2019-03-25T03:41:46.261Z,1009.93
2019-03-25T03:42:46.249Z,1009.94
2019-03-25T03:43:46.239Z,1009.90
2019-03-25T03:44:46.227Z,1009.85
2019-03-25T03:45:46.218Z,1009.87
2019-03-25T03:46:46.205Z,1009.86
2019-03-25T03:47:46.199Z,1009.85
2019-03-25T03:48:46.186Z,1009.84
2019-03-25T03:49:46.201Z,1009.83
2019-03-25T03:50:46.164Z,1009.85
2019-03-25T03:51:46.153Z,1009.83
2019-03-25T03:52:46.143Z,1009.72
2019-03-25T03:53:46.137Z,1009.76
2019-03-25T03:54:46.162Z,1009.73
2019-03-25T03:55:46.109Z,1009.69
2019-03-25T03:56:46.099Z,1009.71
2019-03-25T03:57:46.093Z,1009.69
2019-03-25T03:58:46.083Z,1009.72
2019-03-25T03:59:46.066Z,1009.73
2019-03-25T04:00:46.057Z,1009.68
2019-03-25T04:01:46.046Z,1009.71
2019-03-25T04:02:46.038Z,1009.72
2019-03-25T04:03:46.026Z,1009.70
2019-03-25T04:04:46.015Z,1009.67
2019-03-25T04:05:46.003Z,1009.68
2019-03-25T04:06:45.994Z,1009.65
2019-03-25T04:07:45.980Z,1009.66
2019-03-25T04:08:45.973Z,1009.63
2019-03-25T04:09:45.960Z,1009.61
2019-03-25T04:10:45.950Z,1009.63
2019-03-25T04:11:45.939Z,1009.58
2019-03-25T04:12:45.930Z,1009.50
2019-03-25T04:13:45.920Z,1009.53
2019-03-25T04:14:45.906Z,1009.43
2019-03-25T04:15:45.900Z,1009.42
2019-03-25T04:16:45.887Z,1009.37
2019-03-25T04:17:45.874Z,1009.33
2019-03-25T04:18:45.870Z,1009.32
2019-03-25T04:19:45.856Z,1009.39
2019-03-25T04:20:45.842Z,1009.33
2019-03-25T04:21:45.837Z,1009.32
2019-03-25T04:22:45.820Z,1009.31
2019-03-25T04:23:46.487Z,1009.26
2019-03-25T04:24:45.799Z,1009.26
2019-03-25T04:25:45.790Z,1009.23
2019-03-25T04:26:45.779Z,1009.23
2019-03-25T04:27:45.768Z,1009.21
2019-03-25T04:28:45.764Z,1009.20
2019-03-25T04:29:45.749Z,1009.16
2019-03-25T04:30:45.736Z,1009.21
2019-03-25T04:31:45.725Z,1009.27
2019-03-25T04:32:45.713Z,1009.09
2019-03-25T04:33:45.705Z,1009.11
2019-03-25T04:34:45.713Z,1009.10
2019-03-25T04:35:45.682Z,1009.05
2019-03-25T04:36:45.673Z,1008.98
2019-03-25T04:37:45.663Z,1008.98
2019-03-25T04:38:45.653Z,1008.96
2019-03-25T04:39:45.641Z,1008.94
2019-03-25T04:40:45.634Z,1008.94
2019-03-25T04:41:45.618Z,1008.92
2019-03-25T04:42:45.607Z,1008.90
2019-03-25T04:43:45.599Z,1008.95
2019-03-25T04:44:45.585Z,1008.93
2019-03-25T04:45:45.577Z,1008.93
2019-03-25T04:46:45.565Z,1008.90
2019-03-25T04:47:45.554Z,1008.87
2019-03-25T04:48:45.547Z,1008.89
2019-03-25T04:49:45.535Z,1008.84
2019-03-25T04:50:45.523Z,1008.79
2019-03-25T04:51:45.513Z,1008.75
2019-03-25T04:52:45.501Z,1008.69
2019-03-25T04:53:45.489Z,1008.71
2019-03-25T04:54:45.478Z,1008.64
2019-03-25T04:55:45.467Z,1008.66
2019-03-25T04:56:45.461Z,1008.66
2019-03-25T04:57:45.447Z,1008.62
2019-03-25T04:58:45.440Z,1008.70
2019-03-25T04:59:45.425Z,1008.68
2019-03-25T05:00:45.415Z,1008.65
2019-03-25T05:01:45.403Z,1008.57
2019-03-25T05:02:45.394Z,1008.63
2019-03-25T05:03:45.383Z,1008.65
2019-03-25T05:04:45.431Z,1008.62
2019-03-25T05:05:45.363Z,1008.65
2019-03-25T05:06:45.351Z,1008.69
2019-03-25T05:07:45.344Z,1008.55
2019-03-25T05:08:45.330Z,1008.59
2019-03-25T05:09:45.320Z,1008.58
2019-03-25T05:10:45.315Z,1008.52
2019-03-25T05:11:45.299Z,1008.56
2019-03-25T05:12:45.286Z,1008.49
2019-03-25T05:13:45.283Z,1008.51
2019-03-25T05:14:45.266Z,1008.47
2019-03-25T05:15:45.257Z,1008.41
2019-03-25T05:16:45.244Z,1008.39
2019-03-25T05:17:45.234Z,1008.36
2019-03-25T05:18:45.226Z,1008.32
2019-03-25T05:19:45.212Z,1008.28
2019-03-25T05:20:45.201Z,1008.23
2019-03-25T05:21:45.198Z,1008.27
2019-03-25T05:22:45.181Z,1008.27
2019-03-25T05:23:45.172Z,1008.24
2019-03-25T05:24:45.160Z,1008.20
2019-03-25T05:25:45.149Z,1008.17
2019-03-25T05:26:51.055Z,1008.15
2019-03-25T05:27:46.125Z,1008.13
2019-03-25T05:28:45.118Z,1008.09
2019-03-25T05:29:45.103Z,1008.12
2019-03-25T05:30:45.173Z,1008.11
2019-03-25T05:31:45.090Z,1008.08
2019-03-25T05:32:45.075Z,1008.04
2019-03-25T05:33:45.062Z,1008.05
2019-03-25T05:34:45.054Z,1008.04
2019-03-25T05:35:46.870Z,1008.02
2019-03-25T05:36:45.029Z,1008.03
2019-03-25T05:37:45.020Z,1007.95
2019-03-25T05:38:45.013Z,1007.96
2019-03-25T05:39:44.997Z,1007.96
2019-03-25T05:40:44.989Z,1007.95
2019-03-25T05:41:44.977Z,1007.99
2019-03-25T05:42:44.966Z,1007.98
2019-03-25T05:43:44.955Z,1007.98
2019-03-25T05:44:44.947Z,1007.99
2019-03-25T05:45:44.934Z,1008.00
2019-03-25T05:46:44.924Z,1007.94
2019-03-25T05:47:44.912Z,1007.94
2019-03-25T05:48:44.904Z,1007.95
2019-03-25T05:49:44.890Z,1007.94
2019-03-25T05:50:44.884Z,1007.91
2019-03-25T05:51:44.869Z,1007.92
2019-03-25T05:52:44.858Z,1007.90
2019-03-25T05:53:44.848Z,1007.82
2019-03-25T05:54:44.839Z,1007.86
2019-03-25T05:55:44.830Z,1007.88
2019-03-25T05:56:44.814Z,1007.83
2019-03-25T05:57:44.804Z,1007.86
2019-03-25T05:58:44.798Z,1007.88
2019-03-25T05:59:44.783Z,1007.80
2019-03-25T06:00:44.776Z,1007.81
2019-03-25T06:01:44.762Z,1007.86
2019-03-25T06:02:44.751Z,1007.87
2019-03-25T06:03:44.741Z,1007.88
2019-03-25T06:04:44.730Z,1007.98
2019-03-25T06:05:44.720Z,1007.94
2019-03-25T06:06:44.713Z,1007.90
2019-03-25T06:07:44.697Z,1007.89
2019-03-25T06:08:44.691Z,1007.87
2019-03-25T06:09:44.677Z,1007.81
2019-03-25T06:10:44.664Z,1007.79
2019-03-25T06:11:44.693Z,1007.86
2019-03-25T06:12:44.645Z,1007.79
2019-03-25T06:13:44.635Z,1007.81
2019-03-25T06:14:44.622Z,1007.79
2019-03-25T06:15:44.613Z,1007.82
2019-03-25T06:16:44.602Z,1007.77
2019-03-25T06:17:44.920Z,1007.77
2019-03-25T06:18:44.580Z,1007.79
2019-03-25T06:19:44.592Z,1007.84
2019-03-25T06:20:44.559Z,1007.83
2019-03-25T06:21:44.576Z,1007.78
2019-03-25T06:22:44.551Z,1007.80
2019-03-25T06:23:44.668Z,1007.85
2019-03-25T06:24:44.646Z,1007.84
2019-03-25T06:25:44.588Z,1007.84
2019-03-25T06:26:44.495Z,1007.83
2019-03-25T06:27:44.483Z,1007.85
2019-03-25T06:28:44.473Z,1007.86
2019-03-25T06:29:45.269Z,1007.87
2019-03-25T06:30:44.453Z,1007.88
2019-03-25T06:31:44.505Z,1007.85
2019-03-25T06:32:44.430Z,1007.85
2019-03-25T06:33:44.419Z,1007.94
2019-03-25T06:34:44.410Z,1007.91
2019-03-25T06:35:44.398Z,1007.89
2019-03-25T06:36:44.386Z,1007.90
2019-03-25T06:37:44.377Z,1007.93
2019-03-25T06:38:44.369Z,1007.93
2019-03-25T06:39:44.357Z,1007.97
2019-03-25T06:40:44.345Z,1007.96
2019-03-25T06:41:44.338Z,1008.06
2019-03-25T06:42:44.324Z,1008.02
2019-03-25T06:43:44.313Z,1008.02
2019-03-25T06:44:44.327Z,1008.02
2019-03-25T06:45:44.295Z,1008.06
2019-03-25T06:46:44.281Z,1008.08
2019-03-25T06:47:44.269Z,1008.06
2019-03-25T06:48:44.262Z,1008.07
2019-03-25T06:49:44.249Z,1008.07
2019-03-25T06:50:44.237Z,1008.09
2019-03-25T06:51:45.273Z,1008.11
2019-03-25T06:52:44.217Z,1008.13
2019-03-25T06:53:44.212Z,1008.12
2019-03-25T06:54:44.195Z,1008.15
2019-03-25T06:55:44.183Z,1008.05
2019-03-25T06:56:44.174Z,1008.07
2019-03-25T06:57:44.167Z,1008.13
2019-03-25T06:58:44.155Z,1008.06
2019-03-25T06:59:44.143Z,1008.09
2019-03-25T07:00:44.130Z,1008.15
2019-03-25T07:01:44.121Z,1008.18
2019-03-25T07:02:44.112Z,1008.13
2019-03-25T07:03:44.099Z,1008.17
2019-03-25T07:04:44.090Z,1008.08
2019-03-25T07:05:44.078Z,1008.10
2019-03-25T07:06:44.072Z,1008.16
2019-03-25T07:07:44.058Z,1008.13
2019-03-25T07:08:44.049Z,1008.11
2019-03-25T07:09:44.035Z,1008.12
2019-03-25T07:10:44.024Z,1008.15
2019-03-25T07:11:44.014Z,1008.17
2019-03-25T07:12:44.011Z,1008.14
2019-03-25T07:13:43.993Z,1008.19
2019-03-25T07:14:43.981Z,1008.16
2019-03-25T07:15:44.286Z,1008.19
2019-03-25T07:16:43.962Z,1008.17
2019-03-25T07:17:43.950Z,1008.15
2019-03-25T07:18:43.948Z,1008.18
2019-03-25T07:19:43.928Z,1008.17
2019-03-25T07:20:43.922Z,1008.12
2019-03-25T07:21:43.908Z,1008.22
2019-03-25T07:22:43.897Z,1008.19
2019-03-25T07:23:43.891Z,1008.21
2019-03-25T07:24:43.875Z,1008.19
2019-03-25T07:25:43.865Z,1008.23
2019-03-25T07:26:43.854Z,1008.21
2019-03-25T07:27:43.844Z,1008.19
2019-03-25T07:28:43.841Z,1008.24
2019-03-25T07:29:43.822Z,1008.20
2019-03-25T07:30:43.811Z,1008.25
2019-03-25T07:31:43.802Z,1008.24
2019-03-25T07:32:43.790Z,1008.22
2019-03-25T07:33:43.824Z,1008.21
2019-03-25T07:34:43.768Z,1008.24
2019-03-25T07:35:43.760Z,1008.25
2019-03-25T07:36:43.748Z,1008.19
2019-03-25T07:37:43.746Z,1008.18
2019-03-25T07:38:43.732Z,1008.22
2019-03-25T07:39:43.715Z,1008.21
2019-03-25T07:40:43.706Z,1008.23
2019-03-25T07:41:43.696Z,1008.19
2019-03-25T07:42:43.684Z,1008.14
2019-03-25T07:43:43.673Z,1008.23
2019-03-25T07:44:43.667Z,1008.23
2019-03-25T07:45:43.652Z,1008.25
2019-03-25T07:46:43.645Z,1008.23
2019-03-25T07:47:43.635Z,1008.24
2019-03-25T07:48:43.623Z,1008.26
2019-03-25T07:49:43.611Z,1008.27
2019-03-25T07:50:43.598Z,1008.23
2019-03-25T07:51:43.586Z,1008.28
2019-03-25T07:52:43.579Z,1008.24
2019-03-25T07:53:43.578Z,1008.28
2019-03-25T07:54:43.567Z,1008.23
2019-03-25T07:55:43.545Z,1008.21
2019-03-25T07:56:43.544Z,1008.22
2019-03-25T07:57:48.207Z,1008.17
2019-03-25T07:58:44.520Z,1008.19
2019-03-25T07:59:43.520Z,1008.21
2019-03-25T08:00:43.509Z,1008.15
2019-03-25T08:01:43.490Z,1008.24
2019-03-25T08:02:43.485Z,1008.19
2019-03-25T08:03:43.463Z,1008.22
2019-03-25T08:04:43.448Z,1008.26
2019-03-25T08:05:43.447Z,1008.22
2019-03-25T08:06:43.477Z,1008.26
2019-03-25T08:07:43.451Z,1008.27
2019-03-25T08:08:43.419Z,1008.24
2019-03-25T08:09:43.432Z,1008.33
2019-03-25T08:10:43.392Z,1008.32
2019-03-25T08:11:43.378Z,1008.32
2019-03-25T08:12:43.399Z,1008.36
2019-03-25T08:13:43.364Z,1008.34
2019-03-25T08:14:43.344Z,1008.32
2019-03-25T08:15:43.332Z,1008.31
2019-03-25T08:16:43.322Z,1008.30
2019-03-25T08:17:43.313Z,1008.27
2019-03-25T08:18:43.306Z,1008.24
2019-03-25T08:19:43.288Z,1008.32
2019-03-25T08:20:43.279Z,1008.34
2019-03-25T08:21:43.271Z,1008.27
2019-03-25T08:22:43.256Z,1008.29
2019-03-25T08:23:43.245Z,1008.33
2019-03-25T08:24:43.234Z,1008.31
2019-03-25T08:25:43.223Z,1008.29
2019-03-25T08:26:43.215Z,1008.28
2019-03-25T08:27:43.202Z,1008.29
2019-03-25T08:28:43.198Z,1008.28
2019-03-25T08:29:43.182Z,1008.28
2019-03-25T08:30:43.172Z,1008.31
2019-03-25T08:31:43.159Z,1008.36
2019-03-25T08:32:43.151Z,1008.37
2019-03-25T08:33:43.139Z,1008.41
2019-03-25T08:34:43.128Z,1008.40
2019-03-25T08:35:43.116Z,1008.36
2019-03-25T08:36:43.106Z,1008.38
2019-03-25T08:37:43.096Z,1008.42
2019-03-25T08:38:43.088Z,1008.42
2019-03-25T08:39:43.073Z,1008.44
2019-03-25T08:40:43.063Z,1008.49
2019-03-25T08:41:43.053Z,1008.50
2019-03-25T08:42:43.040Z,1008.51
2019-03-25T08:43:43.030Z,1008.52
2019-03-25T08:44:43.020Z,1008.48
2019-03-25T08:45:43.009Z,1008.55
2019-03-25T08:46:42.998Z,1008.52
2019-03-25T08:47:42.989Z,1008.56
2019-03-25T08:48:43.044Z,1008.58
2019-03-25T08:49:42.967Z,1008.47
2019-03-25T08:50:42.959Z,1008.56
2019-03-25T08:51:42.948Z,1008.55
2019-03-25T08:52:42.936Z,1008.51
2019-03-25T08:53:42.924Z,1008.57
2019-03-25T08:54:42.913Z,1008.55
2019-03-25T08:55:42.903Z,1008.47
2019-03-25T08:56:42.893Z,1008.59
2019-03-25T08:57:42.882Z,1008.59
2019-03-25T08:58:42.876Z,1008.60
2019-03-25T08:59:42.865Z,1008.60
2019-03-25T09:00:42.849Z,1008.68
2019-03-25T09:01:42.839Z,1008.65
2019-03-25T09:02:42.827Z,1008.64
2019-03-25T09:03:42.817Z,1008.65
2019-03-25T09:04:42.810Z,1008.68
2019-03-25T09:05:42.796Z,1008.69
2019-03-25T09:06:42.785Z,1008.70
2019-03-25T09:07:42.776Z,1008.65
2019-03-25T09:08:42.766Z,1008.70
2019-03-25T09:09:42.752Z,1008.67
2019-03-25T09:10:42.742Z,1008.67
2019-03-25T09:11:42.730Z,1008.64
2019-03-25T09:12:42.728Z,1008.69
2019-03-25T09:13:42.709Z,1008.69
2019-03-25T09:14:42.702Z,1008.72
2019-03-25T09:15:42.688Z,1008.65
2019-03-25T09:16:42.676Z,1008.66
2019-03-25T09:17:42.667Z,1008.65
2019-03-25T09:18:42.659Z,1008.59
2019-03-25T09:19:42.644Z,1008.59
2019-03-25T09:20:42.633Z,1008.61
2019-03-25T09:21:42.623Z,1008.64
2019-03-25T09:22:42.614Z,1008.68
2019-03-25T09:23:42.602Z,1008.68
2019-03-25T09:24:42.592Z,1008.74
2019-03-25T09:25:42.579Z,1008.72
2019-03-25T09:26:42.568Z,1008.71
2019-03-25T09:27:42.563Z,1008.75
2019-03-25T09:28:42.550Z,1008.68
2019-03-25T09:29:42.538Z,1008.72
2019-03-25T09:30:42.526Z,1008.78
2019-03-25T09:31:42.515Z,1008.75
2019-03-25T09:32:42.502Z,1008.84
2019-03-25T09:33:42.492Z,1008.78
2019-03-25T09:34:42.481Z,1008.71
2019-03-25T09:35:42.510Z,1008.74
2019-03-25T09:36:42.460Z,1008.80
2019-03-25T09:37:42.451Z,1008.75
2019-03-25T09:38:42.444Z,1008.83
2019-03-25T09:39:42.427Z,1008.78
2019-03-25T09:40:42.417Z,1008.81
2019-03-25T09:41:42.406Z,1008.79
2019-03-25T09:42:42.396Z,1008.83
2019-03-25T09:43:42.384Z,1008.89
2019-03-25T09:44:42.373Z,1008.87
2019-03-25T09:45:42.364Z,1008.87
2019-03-25T09:46:42.353Z,1008.86
2019-03-25T09:47:42.341Z,1008.89
2019-03-25T09:48:42.335Z,1008.88
2019-03-25T09:49:42.320Z,1008.83
2019-03-25T09:50:42.310Z,1008.87
2019-03-25T09:51:42.360Z,1008.88
2019-03-25T09:52:42.287Z,1008.89
2019-03-25T09:53:42.276Z,1009.01
2019-03-25T09:54:42.268Z,1008.91
2019-03-25T09:55:42.257Z,1009.00
2019-03-25T09:56:42.249Z,1009.01
2019-03-25T09:57:42.299Z,1008.95
2019-03-25T09:58:42.228Z,1008.87
2019-03-25T09:59:42.210Z,1008.92
2019-03-25T10:00:42.200Z,1008.89
2019-03-25T10:01:42.192Z,1009.01
2019-03-25T10:02:42.179Z,1008.97
2019-03-25T10:03:42.168Z,1008.97
2019-03-25T10:04:42.158Z,1008.88
2019-03-25T10:05:42.149Z,1008.92
2019-03-25T10:06:42.137Z,1008.97
2019-03-25T10:07:42.126Z,1008.98
2019-03-25T10:08:42.118Z,1008.94
2019-03-25T10:09:42.105Z,1008.96
2019-03-25T10:10:42.097Z,1008.94
2019-03-25T10:11:42.082Z,1008.92
2019-03-25T10:12:42.073Z,1009.00
2019-03-25T10:13:42.061Z,1008.97
2019-03-25T10:14:42.051Z,1009.02
2019-03-25T10:15:42.045Z,1008.97
2019-03-25T10:16:42.029Z,1009.00
2019-03-25T10:17:42.019Z,1009.00
2019-03-25T10:18:42.009Z,1009.09
2019-03-25T10:19:42.002Z,1009.07
2019-03-25T10:20:41.988Z,1009.08
2019-03-25T10:21:41.983Z,1009.04
2019-03-25T10:22:41.965Z,1009.09
2019-03-25T10:23:41.957Z,1009.07
2019-03-25T10:24:41.943Z,1009.13
2019-03-25T10:25:41.934Z,1009.16
2019-03-25T10:26:41.920Z,1009.13
2019-03-25T10:27:41.912Z,1009.22
2019-03-25T10:28:48.546Z,1009.25
2019-03-25T10:29:42.886Z,1009.27
2019-03-25T10:30:41.877Z,1009.25
2019-03-25T10:31:41.873Z,1009.29
2019-03-25T10:32:41.854Z,1009.72
2019-03-25T10:33:41.846Z,1009.27
2019-03-25T10:34:41.833Z,1009.24
2019-03-25T10:35:41.823Z,1009.15
2019-03-25T10:36:41.813Z,1009.17
2019-03-25T10:37:41.801Z,1009.13
2019-03-25T10:38:41.793Z,1009.17
2019-03-25T10:39:41.780Z,1009.22
2019-03-25T10:40:41.768Z,1009.32
2019-03-25T10:41:41.765Z,1009.35
2019-03-25T10:42:41.748Z,1009.40
2019-03-25T10:43:41.737Z,1009.37
2019-03-25T10:44:41.731Z,1009.39
2019-03-25T10:45:41.715Z,1009.38
2019-03-25T10:46:41.707Z,1009.39
2019-03-25T10:47:41.693Z,1009.42
2019-03-25T10:48:41.686Z,1009.33
2019-03-25T10:49:41.674Z,1009.33
2019-03-25T10:50:41.661Z,1009.28
2019-03-25T10:51:41.650Z,1009.29
2019-03-25T10:52:41.640Z,1009.26
2019-03-25T10:53:41.630Z,1009.31
2019-03-25T10:54:41.716Z,1009.51
2019-03-25T10:55:41.609Z,1009.57
2019-03-25T10:56:48.985Z,1009.50
2019-03-25T10:57:42.583Z,1009.26
2019-03-25T10:58:41.576Z,1009.23
2019-03-25T10:59:41.563Z,1009.20
2019-03-25T11:00:41.562Z,1009.05
2019-03-25T11:01:41.544Z,1009.12
2019-03-25T11:02:41.532Z,1009.07
2019-03-25T11:03:41.519Z,1009.17
2019-03-25T11:04:41.509Z,1009.09
2019-03-25T11:05:41.501Z,1009.12
2019-03-25T11:06:41.486Z,1009.14
2019-03-25T11:08:41.470Z,1009.11
2019-03-25T11:09:41.453Z,1009.13
2019-03-25T11:10:41.442Z,1009.24
2019-03-25T11:11:41.433Z,1009.24
2019-03-25T11:12:41.420Z,1009.21
2019-03-25T11:13:41.412Z,1009.23
2019-03-25T11:14:41.399Z,1009.36
2019-03-25T11:15:41.387Z,1009.17
2019-03-25T11:16:41.378Z,1009.11
2019-03-25T11:17:41.366Z,1009.21
2019-03-25T11:18:41.359Z,1009.18
2019-03-25T11:19:41.353Z,1009.25
2019-03-25T11:20:41.334Z,1009.07
2019-03-25T11:21:41.323Z,1009.05
2019-03-25T11:22:41.312Z,1009.07
2019-03-25T11:23:41.301Z,1009.12
2019-03-25T11:24:41.290Z,1009.12
2019-03-25T11:25:41.279Z,1009.14
2019-03-25T11:26:41.269Z,1009.10
2019-03-25T11:27:41.257Z,1009.13
2019-03-25T11:28:41.251Z,1009.26
2019-03-25T11:29:41.240Z,1009.10
2019-03-25T11:30:41.225Z,1009.40
2019-03-25T11:31:41.215Z,1009.29
2019-03-25T11:32:41.203Z,1009.06
2019-03-25T11:33:41.193Z,1009.10
2019-03-25T11:34:41.185Z,1009.45
2019-03-25T11:35:41.178Z,1009.47
2019-03-25T11:36:41.163Z,1009.11
2019-03-25T11:37:41.149Z,1009.04
2019-03-25T11:38:41.141Z,1009.15
2019-03-25T11:39:41.128Z,1009.18
2019-03-25T11:40:41.117Z,1009.31
2019-03-25T11:41:41.106Z,1009.25
2019-03-25T11:42:41.096Z,1009.29
2019-03-25T11:43:41.083Z,1009.25
2019-03-25T11:44:41.073Z,1009.17
2019-03-25T11:45:41.062Z,1009.20
2019-03-25T11:46:41.053Z,1009.19
2019-03-25T11:47:41.040Z,1009.28
2019-03-25T11:48:41.032Z,1009.51
2019-03-25T11:49:41.018Z,1009.33
2019-03-25T11:50:41.008Z,1009.56
2019-03-25T11:51:40.999Z,1009.51
2019-03-25T11:52:40.986Z,1009.23
2019-03-25T11:53:40.974Z,1009.23
2019-03-25T11:54:40.964Z,1009.20
2019-03-25T11:55:40.952Z,1009.35
2019-03-25T11:56:40.943Z,1009.20
2019-03-25T11:57:40.932Z,1009.27
2019-03-25T11:58:40.923Z,1009.42
2019-03-25T11:59:40.909Z,1009.39
2019-03-25T12:00:40.897Z,1009.44
2019-03-25T12:01:40.886Z,1009.45
2019-03-25T12:02:40.880Z,1009.40
2019-03-25T12:03:40.867Z,1009.28
2019-03-25T12:04:40.864Z,1009.33
2019-03-25T12:05:40.860Z,1009.37
2019-03-25T12:06:40.833Z,1009.30